Terminal Aerodrome Forecast
Issued by NWS

Current Version | Previous Version | Graphics & Text | Print | Product List | Glossary On
Versions: 1 2 3 4 5 6 7 8 9 10 11 12 13 14 15 16 17 18 19 20
021
FTUS41 KPBZ 132336
TAFHLG
TAF
KHLG 132336Z 1400/1424 02005KT P6SM BKN150
     FM141500 34003KT 5SM -RAPL OVC020
     FM142100 31003KT P6SM OVC015=

USA.gov is the U.S. government's official web portal to all federal, state and local government web resources and services.